sensor_id;sensor_type;location;lat;lon;timestamp;pressure;altitude;pressure_sealevel;temperature;humidity
18504;BME280;9381;54.244;10.074;2022-12-20T00:04:56;100732.19;;;6.83;100.00
18504;BME280;9381;54.244;10.074;2022-12-20T00:09:56;100734.38;;;6.94;100.00
18504;BME280;9381;54.244;10.074;2022-12-20T00:14:57;100717.00;;;6.96;100.00
18504;BME280;9381;54.244;10.074;2022-12-20T00:19:57;100707.91;;;6.97;100.00
18504;BME280;9381;54.244;10.074;2022-12-20T00:24:57;100708.75;;;6.98;100.00
18504;BME280;9381;54.244;10.074;2022-12-20T00:29:57;100714.31;;;6.96;100.00
18504;BME280;9381;54.244;10.074;2022-12-20T00:34:58;100694.59;;;7.10;100.00
18504;BME280;9381;54.244;10.074;2022-12-20T00:39:58;100689.75;;;6.99;100.00
18504;BME280;9381;54.244;10.074;2022-12-20T00:44:58;100693.50;;;7.05;100.00
18504;BME280;9381;54.244;10.074;2022-12-20T00:49:59;100686.53;;;7.10;100.00
18504;BME280;9381;54.244;10.074;2022-12-20T00:54:59;100686.97;;;7.14;100.00
18504;BME280;9381;54.244;10.074;2022-12-20T00:59:59;100685.56;;;7.24;100.00
18504;BME280;9381;54.244;10.074;2022-12-20T01:04:59;100673.78;;;7.25;100.00
18504;BME280;9381;54.244;10.074;2022-12-20T01:10:00;100685.56;;;7.24;100.00
18504;BME280;9381;54.244;10.074;2022-12-20T01:15:00;100691.22;;;7.29;100.00
18504;BME280;9381;54.244;10.074;2022-12-20T01:20:00;100696.19;;;7.32;100.00
18504;BME280;9381;54.244;10.074;2022-12-20T01:25:01;100694.09;;;7.28;100.00
18504;BME280;9381;54.244;10.074;2022-12-20T01:30:01;100701.81;;;7.37;100.00
18504;BME280;9381;54.244;10.074;2022-12-20T01:35:01;100701.19;;;7.35;100.00
18504;BME280;9381;54.244;10.074;2022-12-20T01:40:02;100692.91;;;7.37;100.00
18504;BME280;9381;54.244;10.074;2022-12-20T01:45:07;100703.66;;;7.37;100.00
18504;BME280;9381;54.244;10.074;2022-12-20T01:50:08;100707.56;;;7.34;100.00
18504;BME280;9381;54.244;10.074;2022-12-20T01:55:19;100703.22;;;7.33;100.00
18504;BME280;9381;54.244;10.074;2022-12-20T02:00:21;100696.56;;;7.23;100.00
18504;BME280;9381;54.244;10.074;2022-12-20T02:05:22;100691.63;;;7.26;100.00
18504;BME280;9381;54.244;10.074;2022-12-20T02:10:28;100692.88;;;7.30;100.00
18504;BME280;9381;54.244;10.074;2022-12-20T02:15:55;100690.59;;;7.27;100.00
18504;BME280;9381;54.244;10.074;2022-12-20T02:21:07;100696.00;;;7.34;100.00
18504;BME280;9381;54.244;10.074;2022-12-20T02:31:26;100680.75;;;7.41;100.00
18504;BME280;9381;54.244;10.074;2022-12-20T02:36:28;100691.34;;;7.49;100.00
18504;BME280;9381;54.244;10.074;2022-12-20T02:41:32;100694.56;;;7.38;100.00
18504;BME280;9381;54.244;10.074;2022-12-20T02:46:34;100697.94;;;7.46;100.00
18504;BME280;9381;54.244;10.074;2022-12-20T02:51:35;100706.50;;;7.56;100.00
18504;BME280;9381;54.244;10.074;2022-12-20T02:56:56;100707.09;;;7.52;100.00
18504;BME280;9381;54.244;10.074;2022-12-20T03:02:00;100703.56;;;7.51;100.00
18504;BME280;9381;54.244;10.074;2022-12-20T03:07:02;100686.38;;;7.52;100.00
18504;BME280;9381;54.244;10.074;2022-12-20T03:12:04;100687.16;;;7.40;100.00
18504;BME280;9381;54.244;10.074;2022-12-20T03:17:05;100683.38;;;7.34;100.00
18504;BME280;9381;54.244;10.074;2022-12-20T03:22:05;100680.31;;;7.37;100.00
18504;BME280;9381;54.244;10.074;2022-12-20T03:27:06;100666.00;;;7.37;100.00
18504;BME280;9381;54.244;10.074;2022-12-20T03:32:06;100666.53;;;7.19;100.00
18504;BME280;9381;54.244;10.074;2022-12-20T03:37:07;100655.91;;;7.11;100.00
18504;BME280;9381;54.244;10.074;2022-12-20T03:42:07;100663.78;;;7.13;100.00
18504;BME280;9381;54.244;10.074;2022-12-20T03:47:07;100663.72;;;7.06;100.00
18504;BME280;9381;54.244;10.074;2022-12-20T03:52:11;100660.00;;;7.07;100.00
18504;BME280;9381;54.244;10.074;2022-12-20T03:57:11;100663.88;;;6.98;100.00
18504;BME280;9381;54.244;10.074;2022-12-20T04:02:12;100660.34;;;6.98;100.00
18504;BME280;9381;54.244;10.074;2022-12-20T04:07:12;100653.75;;;7.00;100.00
18504;BME280;9381;54.244;10.074;2022-12-20T04:12:12;100655.38;;;6.95;100.00
18504;BME280;9381;54.244;10.074;2022-12-20T04:17:12;100654.25;;;7.10;100.00
18504;BME280;9381;54.244;10.074;2022-12-20T04:22:13;100643.72;;;7.15;100.00
18504;BME280;9381;54.244;10.074;2022-12-20T04:27:13;100644.66;;;7.01;100.00
18504;BME280;9381;54.244;10.074;2022-12-20T04:32:13;100649.00;;;7.02;100.00
18504;BME280;9381;54.244;10.074;2022-12-20T04:37:14;100637.72;;;7.13;100.00
18504;BME280;9381;54.244;10.074;2022-12-20T04:42:14;100644.53;;;7.09;100.00
18504;BME280;9381;54.244;10.074;2022-12-20T04:47:14;100632.44;;;7.26;100.00
18504;BME280;9381;54.244;10.074;2022-12-20T04:52:16;100627.38;;;7.17;100.00
18504;BME280;9381;54.244;10.074;2022-12-20T04:57:35;100633.63;;;7.17;100.00
18504;BME280;9381;54.244;10.074;2022-12-20T05:02:35;100622.84;;;7.17;100.00
18504;BME280;9381;54.244;10.074;2022-12-20T05:07:35;100612.09;;;7.17;100.00
18504;BME280;9381;54.244;10.074;2022-12-20T05:12:36;100610.91;;;7.26;100.00
18504;BME280;9381;54.244;10.074;2022-12-20T05:17:37;100617.94;;;7.27;100.00
18504;BME280;9381;54.244;10.074;2022-12-20T05:22:37;100608.22;;;7.26;100.00
18504;BME280;9381;54.244;10.074;2022-12-20T05:27:56;100604.66;;;7.19;100.00
18504;BME280;9381;54.244;10.074;2022-12-20T05:32:56;100600.81;;;7.35;100.00
18504;BME280;9381;54.244;10.074;2022-12-20T05:37:57;100601.09;;;7.46;100.00
18504;BME280;9381;54.244;10.074;2022-12-20T05:42:57;100598.75;;;7.43;100.00
18504;BME280;9381;54.244;10.074;2022-12-20T05:47:57;100603.56;;;7.48;100.00
18504;BME280;9381;54.244;10.074;2022-12-20T05:52:58;100597.97;;;7.43;100.00
18504;BME280;9381;54.244;10.074;2022-12-20T05:57:58;100590.78;;;7.56;100.00
18504;BME280;9381;54.244;10.074;2022-12-20T06:02:58;100599.50;;;7.65;100.00
18504;BME280;9381;54.244;10.074;2022-12-20T06:07:58;100583.00;;;7.87;100.00
18504;BME280;9381;54.244;10.074;2022-12-20T06:13:00;100589.25;;;7.94;100.00
18504;BME280;9381;54.244;10.074;2022-12-20T06:18:01;100574.75;;;8.02;100.00
18504;BME280;9381;54.244;10.074;2022-12-20T06:23:02;100582.41;;;7.98;100.00
18504;BME280;9381;54.244;10.074;2022-12-20T06:28:02;100565.25;;;7.99;100.00
18504;BME280;9381;54.244;10.074;2022-12-20T06:33:03;100578.06;;;7.97;100.00
18504;BME280;9381;54.244;10.074;2022-12-20T06:38:03;100588.06;;;8.16;100.00
18504;BME280;9381;54.244;10.074;2022-12-20T06:43:04;100593.94;;;8.26;100.00
18504;BME280;9381;54.244;10.074;2022-12-20T06:48:04;100595.16;;;8.30;100.00
18504;BME280;9381;54.244;10.074;2022-12-20T06:53:04;100586.03;;;8.38;100.00
18504;BME280;9381;54.244;10.074;2022-12-20T06:58:05;100596.22;;;8.42;100.00
18504;BME280;9381;54.244;10.074;2022-12-20T07:03:05;100605.56;;;8.53;100.00
18504;BME280;9381;54.244;10.074;2022-12-20T07:08:06;100592.28;;;8.57;100.00
18504;BME280;9381;54.244;10.074;2022-12-20T07:13:06;100587.09;;;8.43;100.00
18504;BME280;9381;54.244;10.074;2022-12-20T07:18:08;100599.94;;;8.41;100.00
18504;BME280;9381;54.244;10.074;2022-12-20T07:23:08;100602.66;;;8.54;100.00
18504;BME280;9381;54.244;10.074;2022-12-20T07:28:08;100588.78;;;8.51;100.00
18504;BME280;9381;54.244;10.074;2022-12-20T07:33:08;100587.94;;;8.50;100.00
18504;BME280;9381;54.244;10.074;2022-12-20T07:38:09;100574.44;;;8.50;100.00
18504;BME280;9381;54.244;10.074;2022-12-20T07:43:09;100570.09;;;8.62;100.00
18504;BME280;9381;54.244;10.074;2022-12-20T07:48:09;100573.63;;;8.69;100.00
18504;BME280;9381;54.244;10.074;2022-12-20T07:53:10;100564.50;;;8.76;100.00
18504;BME280;9381;54.244;10.074;2022-12-20T07:58:11;100569.66;;;8.84;100.00
18504;BME280;9381;54.244;10.074;2022-12-20T08:03:40;100566.94;;;9.04;100.00
18504;BME280;9381;54.244;10.074;2022-12-20T08:08:46;100558.19;;;9.15;100.00
18504;BME280;9381;54.244;10.074;2022-12-20T08:13:49;100554.66;;;9.21;100.00
18504;BME280;9381;54.244;10.074;2022-12-20T08:18:49;100566.03;;;9.36;100.00
18504;BME280;9381;54.244;10.074;2022-12-20T08:23:49;100563.53;;;9.41;100.00
18504;BME280;9381;54.244;10.074;2022-12-20T08:28:50;100564.78;;;9.38;100.00
18504;BME280;9381;54.244;10.074;2022-12-20T08:33:53;100571.81;;;9.46;100.00
18504;BME280;9381;54.244;10.074;2022-12-20T08:38:54;100560.94;;;9.65;100.00
18504;BME280;9381;54.244;10.074;2022-12-20T08:43:54;100543.88;;;9.71;100.00
18504;BME280;9381;54.244;10.074;2022-12-20T08:48:55;100534.28;;;9.82;100.00
18504;BME280;9381;54.244;10.074;2022-12-20T08:53:55;100533.22;;;9.83;100.00
18504;BME280;9381;54.244;10.074;2022-12-20T08:58:56;100538.00;;;9.81;100.00
18504;BME280;9381;54.244;10.074;2022-12-20T09:03:56;100541.97;;;9.78;100.00
18504;BME280;9381;54.244;10.074;2022-12-20T09:08:58;100533.13;;;9.96;100.00
18504;BME280;9381;54.244;10.074;2022-12-20T09:13:59;100541.09;;;9.91;100.00
18504;BME280;9381;54.244;10.074;2022-12-20T09:19:01;100549.84;;;9.80;100.00
18504;BME280;9381;54.244;10.074;2022-12-20T09:24:01;100540.25;;;9.90;100.00
18504;BME280;9381;54.244;10.074;2022-12-20T09:29:02;100546.72;;;9.83;100.00
18504;BME280;9381;54.244;10.074;2022-12-20T09:34:03;100532.28;;;10.02;100.00
18504;BME280;9381;54.244;10.074;2022-12-20T09:39:03;100533.53;;;9.99;100.00
18504;BME280;9381;54.244;10.074;2022-12-20T09:44:30;100529.50;;;10.15;100.00
18504;BME280;9381;54.244;10.074;2022-12-20T09:49:35;100538.66;;;10.14;100.00
18504;BME280;9381;54.244;10.074;2022-12-20T10:00:18;100531.09;;;10.29;100.00
18504;BME280;9381;54.244;10.074;2022-12-20T10:05:38;100526.53;;;10.23;100.00
18504;BME280;9381;54.244;10.074;2022-12-20T10:10:52;100530.97;;;10.42;100.00
18504;BME280;9381;54.244;10.074;2022-12-20T10:21:20;100511.91;;;10.37;100.00
18504;BME280;9381;54.244;10.074;2022-12-20T10:26:25;100506.50;;;10.37;100.00
18504;BME280;9381;54.244;10.074;2022-12-20T10:31:26;100501.09;;;10.37;100.00
18504;BME280;9381;54.244;10.074;2022-12-20T10:36:32;100487.66;;;10.48;100.00
18504;BME280;9381;54.244;10.074;2022-12-20T10:46:51;100469.28;;;10.57;100.00
18504;BME280;9381;54.244;10.074;2022-12-20T10:57:27;100462.66;;;10.53;100.00
18504;BME280;9381;54.244;10.074;2022-12-20T11:02:31;100454.50;;;10.59;100.00
18504;BME280;9381;54.244;10.074;2022-12-20T11:07:33;100459.81;;;10.48;100.00
18504;BME280;9381;54.244;10.074;2022-12-20T11:12:34;100459.72;;;10.54;100.00
18504;BME280;9381;54.244;10.074;2022-12-20T11:17:44;100444.34;;;10.55;100.00
18504;BME280;9381;54.244;10.074;2022-12-20T11:33:40;100421.22;;;10.77;100.00
18504;BME280;9381;54.244;10.074;2022-12-20T11:38:54;100417.16;;;10.68;100.00
18504;BME280;9381;54.244;10.074;2022-12-20T11:44:12;100411.06;;;10.72;100.00
18504;BME280;9381;54.244;10.074;2022-12-20T11:49:39;100409.22;;;10.73;100.00
18504;BME280;9381;54.244;10.074;2022-12-20T11:54:52;100396.41;;;10.80;100.00
18504;BME280;9381;54.244;10.074;2022-12-20T11:59:59;100411.75;;;10.68;100.00
18504;BME280;9381;54.244;10.074;2022-12-20T12:05:06;100405.75;;;10.66;100.00
18504;BME280;9381;54.244;10.074;2022-12-20T12:10:22;100408.44;;;10.66;100.00
18504;BME280;9381;54.244;10.074;2022-12-20T12:15:37;100389.66;;;10.71;100.00
18504;BME280;9381;54.244;10.074;2022-12-20T12:20:53;100388.91;;;10.82;100.00
18504;BME280;9381;54.244;10.074;2022-12-20T12:25:58;100374.47;;;10.88;100.00
18504;BME280;9381;54.244;10.074;2022-12-20T12:31:07;100387.91;;;10.76;100.00
18504;BME280;9381;54.244;10.074;2022-12-20T12:36:23;100372.44;;;10.83;100.00
18504;BME280;9381;54.244;10.074;2022-12-20T12:46:58;100364.47;;;10.88;100.00
18504;BME280;9381;54.244;10.074;2022-12-20T12:52:02;100374.94;;;10.85;100.00
18504;BME280;9381;54.244;10.074;2022-12-20T12:57:15;100371.25;;;10.79;100.00
18504;BME280;9381;54.244;10.074;2022-12-20T13:43:41;100336.69;;;11.11;100.00
18504;BME280;9381;54.244;10.074;2022-12-20T13:53:54;100348.25;;;11.18;100.00
18504;BME280;9381;54.244;10.074;2022-12-20T13:58:57;100348.16;;;10.95;100.00
18504;BME280;9381;54.244;10.074;2022-12-20T14:03:58;100349.72;;;11.02;100.00
18504;BME280;9381;54.244;10.074;2022-12-20T14:08:58;100345.34;;;11.01;100.00
18504;BME280;9381;54.244;10.074;2022-12-20T14:14:00;100348.34;;;11.11;100.00
18504;BME280;9381;54.244;10.074;2022-12-20T14:19:03;100338.34;;;11.12;100.00
18504;BME280;9381;54.244;10.074;2022-12-20T14:24:05;100353.84;;;11.05;100.00
18504;BME280;9381;54.244;10.074;2022-12-20T14:29:11;100357.88;;;11.14;100.00
18504;BME280;9381;54.244;10.074;2022-12-20T14:34:17;100348.25;;;11.18;100.00
18504;BME280;9381;54.244;10.074;2022-12-20T14:39:32;100336.78;;;11.04;100.00
18504;BME280;9381;54.244;10.074;2022-12-20T14:44:33;100317.81;;;11.04;100.00
18504;BME280;9381;54.244;10.074;2022-12-20T14:49:37;100302.84;;;10.90;100.00
18504;BME280;9381;54.244;10.074;2022-12-20T15:10:40;100324.38;;;10.97;100.00
18504;BME280;9381;54.244;10.074;2022-12-20T15:15:42;100318.56;;;10.82;100.00
18504;BME280;9381;54.244;10.074;2022-12-20T15:20:43;100317.97;;;10.80;100.00
18504;BME280;9381;54.244;10.074;2022-12-20T15:25:45;100312.84;;;10.72;100.00
18504;BME280;9381;54.244;10.074;2022-12-20T15:30:47;100332.63;;;10.72;100.00
18504;BME280;9381;54.244;10.074;2022-12-20T15:35:48;100332.09;;;10.82;100.00
18504;BME280;9381;54.244;10.074;2022-12-20T15:40:55;100328.50;;;10.70;100.00
18504;BME280;9381;54.244;10.074;2022-12-20T15:45:59;100323.84;;;10.77;100.00
18504;BME280;9381;54.244;10.074;2022-12-20T15:50:59;100314.38;;;10.68;100.00
18504;BME280;9381;54.244;10.074;2022-12-20T15:56:00;100308.50;;;10.53;100.00
18504;BME280;9381;54.244;10.074;2022-12-20T16:01:00;100307.63;;;10.59;100.00
18504;BME280;9381;54.244;10.074;2022-12-20T16:06:02;100305.59;;;10.72;100.00
18504;BME280;9381;54.244;10.074;2022-12-20T16:11:05;100300.25;;;10.66;100.00
18504;BME280;9381;54.244;10.074;2022-12-20T16:16:13;100296.84;;;10.88;100.00
18504;BME280;9381;54.244;10.074;2022-12-20T16:21:17;100311.38;;;10.76;100.00
18504;BME280;9381;54.244;10.074;2022-12-20T16:26:20;100311.47;;;10.69;100.00
18504;BME280;9381;54.244;10.074;2022-12-20T16:31:35;100305.97;;;10.58;100.00
18504;BME280;9381;54.244;10.074;2022-12-20T16:36:35;100304.75;;;10.72;100.00
18504;BME280;9381;54.244;10.074;2022-12-20T16:41:38;100290.47;;;10.83;100.00
18504;BME280;9381;54.244;10.074;2022-12-20T16:46:39;100310.47;;;10.82;100.00
18504;BME280;9381;54.244;10.074;2022-12-20T16:51:43;100301.19;;;10.89;100.00
18504;BME280;9381;54.244;10.074;2022-12-20T16:56:44;100298.31;;;10.73;100.00
18504;BME280;9381;54.244;10.074;2022-12-20T17:01:45;100285.38;;;10.75;100.00
18504;BME280;9381;54.244;10.074;2022-12-20T17:06:46;100287.75;;;10.83;100.00
18504;BME280;9381;54.244;10.074;2022-12-20T17:11:46;100292.91;;;10.73;100.00
18504;BME280;9381;54.244;10.074;2022-12-20T17:16:49;100292.81;;;10.79;100.00
18504;BME280;9381;54.244;10.074;2022-12-20T17:21:49;100303.28;;;10.58;100.00
18504;BME280;9381;54.244;10.074;2022-12-20T17:26:49;100292.75;;;10.68;100.00
18504;BME280;9381;54.244;10.074;2022-12-20T17:31:50;100286.44;;;10.74;100.00
18504;BME280;9381;54.244;10.074;2022-12-20T17:36:52;100284.97;;;10.89;100.00
18504;BME280;9381;54.244;10.074;2022-12-20T17:41:54;100287.91;;;10.70;100.00
18504;BME280;9381;54.244;10.074;2022-12-20T17:46:55;100291.38;;;10.77;100.00
18504;BME280;9381;54.244;10.074;2022-12-20T17:51:56;100296.31;;;10.80;100.00
18504;BME280;9381;54.244;10.074;2022-12-20T17:56:56;100290.84;;;10.86;100.00
18504;BME280;9381;54.244;10.074;2022-12-20T18:01:56;100284.50;;;10.92;100.00
18504;BME280;9381;54.244;10.074;2022-12-20T18:06:57;100284.59;;;10.86;100.00
18504;BME280;9381;54.244;10.074;2022-12-20T18:11:57;100279.19;;;10.86;100.00
18504;BME280;9381;54.244;10.074;2022-12-20T18:16:58;100284.78;;;10.73;100.00
18504;BME280;9381;54.244;10.074;2022-12-20T18:21:58;100287.88;;;10.88;100.00
18504;BME280;9381;54.244;10.074;2022-12-20T18:26:59;100292.13;;;10.84;100.00
18504;BME280;9381;54.244;10.074;2022-12-20T18:31:59;100293.84;;;10.78;100.00
18504;BME280;9381;54.244;10.074;2022-12-20T18:36:59;100283.84;;;10.79;100.00
18504;BME280;9381;54.244;10.074;2022-12-20T18:42:01;100315.53;;;10.90;100.00
18504;BME280;9381;54.244;10.074;2022-12-20T18:47:02;100317.19;;;10.91;100.00
18504;BME280;9381;54.244;10.074;2022-12-20T18:52:03;100306.06;;;10.81;100.00
18504;BME280;9381;54.244;10.074;2022-12-20T18:57:03;100315.41;;;10.85;100.00
18504;BME280;9381;54.244;10.074;2022-12-20T19:02:05;100312.81;;;10.90;100.00
18504;BME280;9381;54.244;10.074;2022-12-20T19:07:06;100303.59;;;10.97;100.00
18504;BME280;9381;54.244;10.074;2022-12-20T19:12:07;100309.25;;;10.78;100.00
18504;BME280;9381;54.244;10.074;2022-12-20T19:17:07;100300.34;;;10.89;100.00
18504;BME280;9381;54.244;10.074;2022-12-20T19:22:07;100301.94;;;10.96;100.00
18504;BME280;9381;54.244;10.074;2022-12-20T19:27:08;100299.56;;;11.00;100.00
18504;BME280;9381;54.244;10.074;2022-12-20T19:32:09;100310.59;;;10.87;100.00
18504;BME280;9381;54.244;10.074;2022-12-20T19:37:09;100311.06;;;10.84;100.00
18504;BME280;9381;54.244;10.074;2022-12-20T19:42:10;100312.06;;;11.01;100.00
18504;BME280;9381;54.244;10.074;2022-12-20T19:47:10;100301.94;;;10.96;100.00
18504;BME280;9381;54.244;10.074;2022-12-20T19:52:12;100305.34;;;10.92;100.00
18504;BME280;9381;54.244;10.074;2022-12-20T19:57:12;100298.06;;;11.04;100.00
18504;BME280;9381;54.244;10.074;2022-12-20T20:02:13;100312.53;;;10.80;100.00
18504;BME280;9381;54.244;10.074;2022-12-20T20:07:14;100308.63;;;10.94;100.00
18504;BME280;9381;54.244;10.074;2022-12-20T20:12:14;100317.59;;;11.06;100.00
18504;BME280;9381;54.244;10.074;2022-12-20T20:17:15;100312.47;;;11.16;100.00
18504;BME280;9381;54.244;10.074;2022-12-20T20:22:15;100333.31;;;11.27;100.00
18504;BME280;9381;54.244;10.074;2022-12-20T20:27:16;100324.06;;;11.05;100.00
18504;BME280;9381;54.244;10.074;2022-12-20T20:32:16;100332.50;;;10.97;100.00
18504;BME280;9381;54.244;10.074;2022-12-20T20:37:16;100335.06;;;11.10;100.00
18504;BME280;9381;54.244;10.074;2022-12-20T20:42:17;100335.75;;;11.17;100.00
18504;BME280;9381;54.244;10.074;2022-12-20T20:47:17;100341.81;;;11.19;100.00
18504;BME280;9381;54.244;10.074;2022-12-20T20:52:18;100352.94;;;11.11;100.00
18504;BME280;9381;54.244;10.074;2022-12-20T20:57:18;100340.13;;;11.18;100.00
18504;BME280;9381;54.244;10.074;2022-12-20T21:02:19;100325.63;;;11.12;100.00
18504;BME280;9381;54.244;10.074;2022-12-20T21:07:21;100316.44;;;11.02;100.00
18504;BME280;9381;54.244;10.074;2022-12-20T21:12:21;100324.13;;;11.16;100.00
18504;BME280;9381;54.244;10.074;2022-12-20T21:17:22;100334.72;;;11.18;100.00
18504;BME280;9381;54.244;10.074;2022-12-20T21:22:22;100331.72;;;11.08;100.00
18504;BME280;9381;54.244;10.074;2022-12-20T21:27:22;100333.38;;;11.09;100.00
18504;BME280;9381;54.244;10.074;2022-12-20T21:32:23;100329.16;;;11.13;100.00
18504;BME280;9381;54.244;10.074;2022-12-20T21:37:24;100326.31;;;11.08;100.00
18504;BME280;9381;54.244;10.074;2022-12-20T21:42:24;100338.13;;;10.95;100.00
18504;BME280;9381;54.244;10.074;2022-12-20T21:47:24;100339.03;;;10.60;100.00
18504;BME280;9381;54.244;10.074;2022-12-20T21:52:25;100333.25;;;11.04;100.00
18504;BME280;9381;54.244;10.074;2022-12-20T21:57:25;100335.31;;;10.90;100.00
18504;BME280;9381;54.244;10.074;2022-12-20T22:02:26;100343.81;;;10.94;100.00
18504;BME280;9381;54.244;10.074;2022-12-20T22:07:26;100343.22;;;10.92;100.00
18504;BME280;9381;54.244;10.074;2022-12-20T22:12:26;100350.88;;;10.95;100.00
18504;BME280;9381;54.244;10.074;2022-12-20T22:17:27;100351.16;;;10.87;100.00
18504;BME280;9381;54.244;10.074;2022-12-20T22:22:27;100332.91;;;10.82;100.00
18504;BME280;9381;54.244;10.074;2022-12-20T22:27:27;100347.28;;;10.83;100.00
18504;BME280;9381;54.244;10.074;2022-12-20T22:32:30;100347.13;;;10.78;100.00
18504;BME280;9381;54.244;10.074;2022-12-20T22:37:30;100343.81;;;10.76;100.00
18504;BME280;9381;54.244;10.074;2022-12-20T22:42:31;100338.88;;;10.73;100.00
18504;BME280;9381;54.244;10.074;2022-12-20T22:47:31;100339.47;;;10.75;100.00
18504;BME280;9381;54.244;10.074;2022-12-20T22:52:32;100346.53;;;10.76;100.00
18504;BME280;9381;54.244;10.074;2022-12-20T22:57:33;100342.59;;;10.72;100.00
18504;BME280;9381;54.244;10.074;2022-12-20T23:02:34;100347.81;;;10.55;100.00
18504;BME280;9381;54.244;10.074;2022-12-20T23:07:34;100336.91;;;10.62;100.00
18504;BME280;9381;54.244;10.074;2022-12-20T23:12:35;100344.81;;;10.63;100.00
18504;BME280;9381;54.244;10.074;2022-12-20T23:17:54;100339.47;;;10.57;100.00
18504;BME280;9381;54.244;10.074;2022-12-20T23:22:55;100331.75;;;10.60;100.00
18504;BME280;9381;54.244;10.074;2022-12-20T23:27:55;100336.84;;;10.32;100.00
18504;BME280;9381;54.244;10.074;2022-12-20T23:32:56;100335.84;;;10.45;100.00
18504;BME280;9381;54.244;10.074;2022-12-20T23:37:56;100335.41;;;10.48;100.00
18504;BME280;9381;54.244;10.074;2022-12-20T23:42:57;100344.44;;;10.42;100.00
18504;BME280;9381;54.244;10.074;2022-12-20T23:47:57;100345.19;;;10.49;100.00
18504;BME280;9381;54.244;10.074;2022-12-20T23:52:58;100343.00;;;10.57;100.00
18504;BME280;9381;54.244;10.074;2022-12-20T23:57:58;100352.75;;;10.58;100.00
